Peotone Weather
Peotone-Weather Station Historical Data
Daily Summary for June 02, 2020 Units:  Both    English   Metric
Daily Weekly Monthly Yearly Custom
  High: Low: Average:
Temperature: 93.2 °F /  34 °C 62.8 °F /  17.1 °C 78.4 °F /  25.8 °C
Dew Point: 68 °F /  20 °C 50.8 °F /  10.4 °C 61.3 °F /  16.3 °C
Humidity: 77% 37.1% 57%
Wind Speed: 16.9mph /  27.2km/h - 10.6mph /  17.1km/h
Wind Gust: 31mph /  49.9km/h - -
Wind- - SW
Pressure: 30.02 in /  1016.5 hPa 29.79 in /  1008.7 hPa -
Precipitation: 0.00 in /  0 mm    
Historical Graphs
 
 
Tabular Data for June 02, 2020
Time Temperature Dew Point Pressure Wind Wind Speed Wind Gust Humidity Rainfall Rate (Hourly) solar
00:04 65.7 °F /  18.7 °C 51.8 °F /  11 °C 30.02in /  1016.5hPa South 5.4mph /  8.7km/h 10.3mph /  16.6km/h 60.7% 0.00in /  0mm 0 W/m2
00:09 65.6 °F /  18.7 °C 51.8 °F /  11 °C 30.02in /  1016.5hPa South 4.9mph /  7.9km/h 10.3mph /  16.6km/h 61% 0.00in /  0mm 0 W/m2
00:14 65.4 °F /  18.6 °C 51.6 °F /  10.9 °C 30.01in /  1016.1hPa South 6.1mph /  9.8km/h 10.3mph /  16.6km/h 61% 0.00in /  0mm 0 W/m2
00:19 65.4 °F /  18.6 °C 51.7 °F /  10.9 °C 30.01in /  1016.1hPa South 6.1mph /  9.8km/h 11.5mph /  18.5km/h 61.2% 0.00in /  0mm 0 W/m2
00:24 65.4 °F /  18.6 °C 51.7 °F /  10.9 °C 30.01in /  1016.1hPa South 6.8mph /  10.9km/h 11.5mph /  18.5km/h 61.2% 0.00in /  0mm 0 W/m2
00:29 65.5 °F /  18.6 °C 51.7 °F /  10.9 °C 30.01in /  1016.1hPa SSW 4.3mph /  6.9km/h 10.3mph /  16.6km/h 61% 0.00in /  0mm 0 W/m2
00:34 65.4 °F /  18.6 °C 51.6 °F /  10.9 °C 30.01in /  1016.1hPa SSW 4.9mph /  7.9km/h 8.1mph /  13km/h 61% 0.00in /  0mm 0 W/m2
00:39 65.4 °F /  18.6 °C 51.6 °F /  10.9 °C 30.01in /  1016.1hPa SSW 5.7mph /  9.2km/h 10.3mph /  16.6km/h 61% 0.00in /  0mm 0 W/m2
00:44 65.3 °F /  18.5 °C 51.6 °F /  10.9 °C 30.01in /  1016.1hPa South 6.4mph /  10.3km/h 10.3mph /  16.6km/h 61.2% 0.00in /  0mm 0 W/m2
00:49 65 °F /  18.3 °C 51.7 °F /  10.9 °C 30.01in /  1016.1hPa SSW 6.9mph /  11.1km/h 11.5mph /  18.5km/h 62% 0.00in /  0mm 0 W/m2
00:54 65.1 °F /  18.4 °C 51.5 °F /  10.8 °C 30.01in /  1016.1hPa SSW 5.3mph /  8.5km/h 11.5mph /  18.5km/h 61.4% 0.00in /  0mm 0 W/m2
00:59 65.1 °F /  18.4 °C 51.4 °F /  10.8 °C 30.01in /  1016.1hPa South 5.8mph /  9.3km/h 9.2mph /  14.8km/h 61.2% 0.00in /  0mm 0 W/m2
01:04 65.1 °F /  18.4 °C 51.4 °F /  10.8 °C 30.01in /  1016.1hPa South 4.7mph /  7.6km/h 9.2mph /  14.8km/h 61% 0.00in /  0mm 0 W/m2
01:09 65 °F /  18.3 °C 51.3 °F /  10.7 °C 30.01in /  1016.1hPa South 5mph /  8km/h 11.5mph /  18.5km/h 61.2% 0.00in /  0mm 0 W/m2
01:14 64.8 °F /  18.2 °C 51.4 °F /  10.8 °C 30.01in /  1016.1hPa South 5mph /  8km/h 11.5mph /  18.5km/h 61.7% 0.00in /  0mm 0 W/m2
01:19 64.8 °F /  18.2 °C 51.2 °F /  10.7 °C 30.01in /  1016.1hPa South 4.9mph /  7.9km/h 10.3mph /  16.6km/h 61.3% 0.00in /  0mm 0 W/m2
01:24 64.9 °F /  18.3 °C 51.2 °F /  10.7 °C 30.00in /  1015.8hPa SSW 6.3mph /  10.1km/h 10.3mph /  16.6km/h 61% 0.00in /  0mm 0 W/m2
01:29 64.8 °F /  18.2 °C 51.1 °F /  10.6 °C 30.00in /  1015.8hPa South 5mph /  8km/h 10.3mph /  16.6km/h 61.2% 0.00in /  0mm 0 W/m2
01:34 64.7 °F /  18.2 °C 51 °F /  10.6 °C 30.00in /  1015.8hPa South 5.2mph /  8.4km/h 11.5mph /  18.5km/h 61.1% 0.00in /  0mm 0 W/m2
01:39 64.6 °F /  18.1 °C 51.1 °F /  10.6 °C 30.00in /  1015.8hPa South 5.6mph /  9km/h 11.5mph /  18.5km/h 61.7% 0.00in /  0mm 0 W/m2
01:44 64.5 °F /  18.1 °C 51 °F /  10.6 °C 30.00in /  1015.8hPa South 5.6mph /  9km/h 11.5mph /  18.5km/h 61.5% 0.00in /  0mm 0 W/m2
01:49 64.6 °F /  18.1 °C 51 °F /  10.6 °C 30.00in /  1015.8hPa South 4.3mph /  6.9km/h 11.5mph /  18.5km/h 61.3% 0.00in /  0mm 0 W/m2
01:54 64.5 °F /  18.1 °C 51.1 °F /  10.6 °C 30.00in /  1015.8hPa South 5.2mph /  8.4km/h 9.2mph /  14.8km/h 61.6% 0.00in /  0mm 0 W/m2
01:59 64.4 °F /  18 °C 50.9 °F /  10.5 °C 30.00in /  1015.8hPa South 3.8mph /  6.1km/h 9.2mph /  14.8km/h 61.5% 0.00in /  0mm 0 W/m2
02:04 64.2 °F /  17.9 °C 51.1 °F /  10.6 °C 30.00in /  1015.8hPa South 4.9mph /  7.9km/h 10.3mph /  16.6km/h 62.5% 0.00in /  0mm 0 W/m2
02:09 64 °F /  17.8 °C 50.9 °F /  10.5 °C 29.99in /  1015.5hPa South 4.7mph /  7.6km/h 10.3mph /  16.6km/h 62.4% 0.00in /  0mm 0 W/m2
02:14 63.9 °F /  17.7 °C 51.1 °F /  10.6 °C 29.99in /  1015.5hPa South 4.8mph /  7.7km/h 9.2mph /  14.8km/h 63% 0.00in /  0mm 0 W/m2
02:19 63.9 °F /  17.7 °C 51 °F /  10.6 °C 29.99in /  1015.5hPa South 4.3mph /  6.9km/h 8.1mph /  13km/h 63% 0.00in /  0mm 0 W/m2
02:24 63.8 °F /  17.7 °C 51 °F /  10.6 °C 29.99in /  1015.5hPa South 4.1mph /  6.6km/h 8.1mph /  13km/h 63% 0.00in /  0mm 0 W/m2
02:29 63.6 °F /  17.6 °C 51 °F /  10.6 °C 29.99in /  1015.5hPa South 3.5mph /  5.6km/h 8.1mph /  13km/h 63.5% 0.00in /  0mm 0 W/m2
02:34 63.5 °F /  17.5 °C 50.8 °F /  10.4 °C 29.99in /  1015.5hPa South 4mph /  6.4km/h 8.1mph /  13km/h 63.3% 0.00in /  0mm 0 W/m2
02:39 63.5 °F /  17.5 °C 51.1 °F /  10.6 °C 29.99in /  1015.5hPa South 5.1mph /  8.2km/h 9.2mph /  14.8km/h 64% 0.00in /  0mm 0 W/m2
02:44 63.4 °F /  17.4 °C 51 °F /  10.6 °C 29.99in /  1015.5hPa South 4.1mph /  6.6km/h 9.2mph /  14.8km/h 64% 0.00in /  0mm 0 W/m2
02:49 63.3 °F /  17.4 °C 51.1 °F /  10.6 °C 29.99in /  1015.5hPa South 4.8mph /  7.7km/h 8.1mph /  13km/h 64.4% 0.00in /  0mm 0 W/m2
02:54 63.3 °F /  17.4 °C 51.1 °F /  10.6 °C 29.99in /  1015.5hPa South 4.7mph /  7.6km/h 8.1mph /  13km/h 64.4% 0.00in /  0mm 0 W/m2
02:59 63.3 °F /  17.4 °C 51.1 °F /  10.6 °C 29.99in /  1015.5hPa South 5.6mph /  9km/h 8.1mph /  13km/h 64.5% 0.00in /  0mm 0 W/m2
03:04 63.2 °F /  17.3 °C 51.2 °F /  10.7 °C 29.98in /  1015.1hPa South 4.4mph /  7.1km/h 9.2mph /  14.8km/h 65% 0.00in /  0mm 0 W/m2
03:09 63.2 °F /  17.3 °C 51.2 °F /  10.7 °C 29.98in /  1015.1hPa South 4.4mph /  7.1km/h 9.2mph /  14.8km/h 65% 0.00in /  0mm 0 W/m2
03:14 63.2 °F /  17.3 °C 51.2 °F /  10.7 °C 29.98in /  1015.1hPa SSW 5.4mph /  8.7km/h 8.1mph /  13km/h 65% 0.00in /  0mm 0 W/m2
03:19 63.2 °F /  17.3 °C 51.2 °F /  10.7 °C 29.98in /  1015.1hPa SSW 5.9mph /  9.5km/h 8.1mph /  13km/h 65% 0.00in /  0mm 0 W/m2
03:24 63.1 °F /  17.3 °C 51.4 °F /  10.8 °C 29.98in /  1015.1hPa SSW 5.4mph /  8.7km/h 10.3mph /  16.6km/h 65.5% 0.00in /  0mm 0 W/m2
03:29 63 °F /  17.2 °C 51.5 °F /  10.8 °C 29.98in /  1015.1hPa SSW 6.2mph /  10km/h 10.3mph /  16.6km/h 66% 0.00in /  0mm 0 W/m2
03:34 62.9 °F /  17.2 °C 51.5 °F /  10.8 °C 29.98in /  1015.1hPa SSW 6.4mph /  10.3km/h 10.3mph /  16.6km/h 66.3% 0.00in /  0mm 0 W/m2
03:39 62.9 °F /  17.2 °C 51.8 °F /  11 °C 29.97in /  1014.8hPa SSW 6.8mph /  10.9km/h 9.2mph /  14.8km/h 67% 0.00in /  0mm 0 W/m2
03:44 62.8 °F /  17.1 °C 51.9 °F /  11.1 °C 29.97in /  1014.8hPa SSW 6mph /  9.7km/h 10.3mph /  16.6km/h 67.5% 0.00in /  0mm 0 W/m2
03:49 62.8 °F /  17.1 °C 52.1 °F /  11.2 °C 29.97in /  1014.8hPa SSW 6.5mph /  10.5km/h 10.3mph /  16.6km/h 68% 0.00in /  0mm 0 W/m2
03:54 62.9 °F /  17.2 °C 52.2 °F /  11.2 °C 29.97in /  1014.8hPa SSW 7.3mph /  11.7km/h 11.5mph /  18.5km/h 68% 0.00in /  0mm 0 W/m2
03:59 62.9 °F /  17.2 °C 52.2 °F /  11.2 °C 29.97in /  1014.8hPa SSW 6.7mph /  10.8km/h 11.5mph /  18.5km/h 68.1% 0.00in /  0mm 0 W/m2
04:04 62.8 °F /  17.1 °C 52.5 °F /  11.4 °C 29.97in /  1014.8hPa SSW 7.4mph /  11.9km/h 12.6mph /  20.3km/h 68.8% 0.00in /  0mm 0 W/m2
04:09 63 °F /  17.2 °C 52.6 °F /  11.4 °C 29.97in /  1014.8hPa SSW 7.9mph /  12.7km/h 12.6mph /  20.3km/h 68.8% 0.00in /  0mm 0 W/m2
04:14 63 °F /  17.2 °C 52.7 °F /  11.5 °C 29.97in /  1014.8hPa SSW 6.5mph /  10.5km/h 12.6mph /  20.3km/h 68.9% 0.00in /  0mm 0 W/m2
04:19 63.1 °F /  17.3 °C 52.8 °F /  11.6 °C 29.96in /  1014.4hPa SSW 7.2mph /  11.6km/h 11.5mph /  18.5km/h 69% 0.00in /  0mm 0 W/m2
04:24 63.2 °F /  17.3 °C 52.9 °F /  11.6 °C 29.96in /  1014.4hPa SSW 7.8mph /  12.6km/h 12.6mph /  20.3km/h 69% 0.00in /  0mm 0 W/m2
04:29 63.1 °F /  17.3 °C 53.2 °F /  11.8 °C 29.96in /  1014.4hPa SSW 8.1mph /  13km/h 12.6mph /  20.3km/h 69.9% 0.00in /  0mm 0 W/m2
04:34 63.1 °F /  17.3 °C 53.2 °F /  11.8 °C 29.96in /  1014.4hPa SSW 9.2mph /  14.8km/h 13.8mph /  22.2km/h 70% 0.00in /  0mm 0 W/m2
04:39 63.1 °F /  17.3 °C 53.5 °F /  11.9 °C 29.96in /  1014.4hPa SSW 8.4mph /  13.5km/h 13.8mph /  22.2km/h 70.7% 0.00in /  0mm 0 W/m2
04:44 63.1 °F /  17.3 °C 53.6 °F /  12 °C 29.96in /  1014.4hPa SSW 8.4mph /  13.5km/h 13.8mph /  22.2km/h 71% 0.00in /  0mm 0 W/m2
04:49 63.2 °F /  17.3 °C 53.7 °F /  12.1 °C 29.96in /  1014.4hPa SSW 8.6mph /  13.8km/h 13.8mph /  22.2km/h 71% 0.00in /  0mm 0 W/m2
04:54 63.3 °F /  17.4 °C 53.7 °F /  12.1 °C 29.96in /  1014.4hPa SSW 7.6mph /  12.2km/h 12.6mph /  20.3km/h 71% 0.00in /  0mm 0 W/m2
04:59 63.1 °F /  17.3 °C 53.9 °F /  12.2 °C 29.96in /  1014.4hPa SSW 6.9mph /  11.1km/h 11.5mph /  18.5km/h 71.9% 0.00in /  0mm 0 W/m2
05:04 63 °F /  17.2 °C 54.1 °F /  12.3 °C 29.96in /  1014.4hPa SSW 7.3mph /  11.7km/h 11.5mph /  18.5km/h 72.7% 0.00in /  0mm 0 W/m2
05:09 62.9 °F /  17.2 °C 54.1 °F /  12.3 °C 29.96in /  1014.4hPa SSW 6.8mph /  10.9km/h 11.5mph /  18.5km/h 73% 0.00in /  0mm 0 W/m2
05:14 63 °F /  17.2 °C 54.5 °F /  12.5 °C 29.96in /  1014.4hPa SSW 6.1mph /  9.8km/h 10.3mph /  16.6km/h 73.8% 0.00in /  0mm 0 W/m2
05:19 63 °F /  17.2 °C 54.6 °F /  12.6 °C 29.96in /  1014.4hPa SSW 6.1mph /  9.8km/h 11.5mph /  18.5km/h 74% 0.00in /  0mm 0 W/m2
05:24 62.9 °F /  17.2 °C 54.6 °F /  12.6 °C 29.96in /  1014.4hPa SSW 6.2mph /  10km/h 11.5mph /  18.5km/h 74.3% 0.00in /  0mm 0 W/m2
05:29 62.9 °F /  17.2 °C 54.9 °F /  12.7 °C 29.96in /  1014.4hPa SSW 6.5mph /  10.5km/h 11.5mph /  18.5km/h 75% 0.00in /  0mm 5 W/m2
05:34 63 °F /  17.2 °C 55 °F /  12.8 °C 29.95in /  1014.1hPa SSW 7mph /  11.3km/h 11.5mph /  18.5km/h 75% 0.00in /  0mm 9 W/m2
05:39 63.1 °F /  17.3 °C 55.1 °F /  12.8 °C 29.96in /  1014.4hPa SSW 6.9mph /  11.1km/h 10.3mph /  16.6km/h 75% 0.00in /  0mm 11 W/m2
05:44 63.1 °F /  17.3 °C 55.5 °F /  13.1 °C 29.96in /  1014.4hPa SSW 7.1mph /  11.4km/h 10.3mph /  16.6km/h 76% 0.00in /  0mm 12 W/m2
05:49 63.2 °F /  17.3 °C 55.6 °F /  13.1 °C 29.96in /  1014.4hPa SSW 6.8mph /  10.9km/h 11.5mph /  18.5km/h 76% 0.00in /  0mm 14 W/m2
05:54 63.3 °F /  17.4 °C 55.7 °F /  13.2 °C 29.96in /  1014.4hPa SSW 7.4mph /  11.9km/h 11.5mph /  18.5km/h 76% 0.00in /  0mm 16 W/m2
05:59 63.4 °F /  17.4 °C 55.7 °F /  13.2 °C 29.96in /  1014.4hPa SSW 8.4mph /  13.5km/h 12.6mph /  20.3km/h 76.1% 0.00in /  0mm 18 W/m2
06:04 63.5 °F /  17.5 °C 56.1 °F /  13.4 °C 29.96in /  1014.4hPa SSW 7.7mph /  12.4km/h 12.6mph /  20.3km/h 77% 0.00in /  0mm 21 W/m2
06:09 63.7 °F /  17.6 °C 56.3 °F /  13.5 °C 29.96in /  1014.4hPa SSW 8.5mph /  13.7km/h 11.5mph /  18.5km/h 77% 0.00in /  0mm 25 W/m2
06:14 63.9 °F /  17.7 °C 56.6 °F /  13.7 °C 29.96in /  1014.4hPa SSW 10.3mph /  16.6km/h 13.8mph /  22.2km/h 77% 0.00in /  0mm 32 W/m2
06:19 64.2 °F /  17.9 °C 56.9 °F /  13.8 °C 29.96in /  1014.4hPa SSW 10.5mph /  16.9km/h 16.1mph /  25.9km/h 77% 0.00in /  0mm 47 W/m2
06:24 64.5 °F /  18.1 °C 57.2 °F /  14 °C 29.96in /  1014.4hPa SSW 9.6mph /  15.4km/h 16.1mph /  25.9km/h 77% 0.00in /  0mm 54 W/m2
06:29 64.8 °F /  18.2 °C 57.2 °F /  14 °C 29.96in /  1014.4hPa SSW 10.2mph /  16.4km/h 17.2mph /  27.7km/h 76.3% 0.00in /  0mm 84 W/m2
06:34 65 °F /  18.3 °C 57.4 °F /  14.1 °C 29.96in /  1014.4hPa SSW 11.1mph /  17.9km/h 17.2mph /  27.7km/h 76.3% 0.00in /  0mm 86 W/m2
06:39 65.3 °F /  18.5 °C 57.7 °F /  14.3 °C 29.96in /  1014.4hPa SSW 10.8mph /  17.4km/h 16.1mph /  25.9km/h 76.6% 0.00in /  0mm 142 W/m2
06:44 65.6 °F /  18.7 °C 57.9 °F /  14.4 °C 29.96in /  1014.4hPa SSW 10.3mph /  16.6km/h 16.1mph /  25.9km/h 76.2% 0.00in /  0mm 153 W/m2
06:49 65.9 °F /  18.8 °C 58.2 °F /  14.6 °C 29.96in /  1014.4hPa SSW 11.4mph /  18.3km/h 17.2mph /  27.7km/h 76.2% 0.00in /  0mm 178 W/m2
06:54 66.3 °F /  19.1 °C 58.5 °F /  14.7 °C 29.96in /  1014.4hPa SSW 10mph /  16.1km/h 17.2mph /  27.7km/h 76% 0.00in /  0mm 195 W/m2
06:59 66.7 °F /  19.3 °C 58.9 °F /  14.9 °C 29.96in /  1014.4hPa SSW 10.7mph /  17.2km/h 16.1mph /  25.9km/h 76% 0.00in /  0mm 209 W/m2
07:04 67.1 °F /  19.5 °C 59 °F /  15 °C 29.96in /  1014.4hPa SSW 10.4mph /  16.7km/h 16.1mph /  25.9km/h 75.4% 0.00in /  0mm 227 W/m2
07:09 67.6 °F /  19.8 °C 59.4 °F /  15.2 °C 29.96in /  1014.4hPa SSW 11.1mph /  17.9km/h 17.2mph /  27.7km/h 75% 0.00in /  0mm 243 W/m2
07:14 67.9 °F /  19.9 °C 59.6 °F /  15.3 °C 29.96in /  1014.4hPa SW 11.5mph /  18.5km/h 19.5mph /  31.4km/h 74.9% 0.00in /  0mm 258 W/m2
07:19 68.3 °F /  20.2 °C 59.7 °F /  15.4 °C 29.96in /  1014.4hPa SW 12.4mph /  20km/h 19.5mph /  31.4km/h 74% 0.00in /  0mm 272 W/m2
07:24 68.6 °F /  20.3 °C 60 °F /  15.6 °C 29.96in /  1014.4hPa SSW 12.9mph /  20.8km/h 20.7mph /  33.3km/h 74% 0.00in /  0mm 288 W/m2
07:29 68.8 °F /  20.4 °C 60.1 °F /  15.6 °C 29.95in /  1014.1hPa SSW 13.7mph /  22km/h 20.7mph /  33.3km/h 73.7% 0.00in /  0mm 304 W/m2
07:34 69.2 °F /  20.7 °C 60.2 °F /  15.7 °C 29.95in /  1014.1hPa SW 13.1mph /  21.1km/h 20.7mph /  33.3km/h 73.2% 0.00in /  0mm 320 W/m2
07:39 69.4 °F /  20.8 °C 60.4 °F /  15.8 °C 29.95in /  1014.1hPa SW 13mph /  20.9km/h 19.5mph /  31.4km/h 73% 0.00in /  0mm 338 W/m2
07:44 69.7 °F /  20.9 °C 60.7 °F /  15.9 °C 29.95in /  1014.1hPa SW 12.5mph /  20.1km/h 20.7mph /  33.3km/h 73% 0.00in /  0mm 353 W/m2
07:49 70.1 °F /  21.2 °C 60.7 °F /  15.9 °C 29.95in /  1014.1hPa SW 11mph /  17.7km/h 20.7mph /  33.3km/h 72.2% 0.00in /  0mm 369 W/m2
07:54 70.5 °F /  21.4 °C 61.1 °F /  16.2 °C 29.95in /  1014.1hPa SW 12.4mph /  20km/h 20.7mph /  33.3km/h 72% 0.00in /  0mm 381 W/m2
07:59 70.9 °F /  21.6 °C 61.3 °F /  16.3 °C 29.95in /  1014.1hPa SW 13.7mph /  22km/h 27.6mph /  44.4km/h 71.8% 0.00in /  0mm 399 W/m2
08:04 71.2 °F /  21.8 °C 61.5 °F /  16.4 °C 29.95in /  1014.1hPa SW 13.9mph /  22.4km/h 27.6mph /  44.4km/h 71.5% 0.00in /  0mm 415 W/m2
08:09 71.5 °F /  21.9 °C 61.7 °F /  16.5 °C 29.95in /  1014.1hPa SW 11.9mph /  19.2km/h 20.7mph /  33.3km/h 71.3% 0.00in /  0mm 431 W/m2
08:14 71.7 °F /  22.1 °C 61.8 °F /  16.6 °C 29.95in /  1014.1hPa SW 13.3mph /  21.4km/h 20.7mph /  33.3km/h 70.9% 0.00in /  0mm 448 W/m2
08:19 72.1 °F /  22.3 °C 62.1 °F /  16.7 °C 29.95in /  1014.1hPa SW 9.8mph /  15.8km/h 20.7mph /  33.3km/h 70.9% 0.00in /  0mm 462 W/m2
08:24 72.6 °F /  22.6 °C 62.6 °F /  17 °C 29.95in /  1014.1hPa SSW 13.2mph /  21.2km/h 20.7mph /  33.3km/h 70.8% 0.00in /  0mm 475 W/m2
08:29 73 °F /  22.8 °C 62.7 °F /  17.1 °C 29.95in /  1014.1hPa SW 13.3mph /  21.4km/h 20.7mph /  33.3km/h 70.2% 0.00in /  0mm 492 W/m2
08:34 73.4 °F /  23 °C 62.7 °F /  17.1 °C 29.95in /  1014.1hPa SW 13.6mph /  21.9km/h 23mph /  37km/h 69.1% 0.00in /  0mm 508 W/m2
08:39 73.6 °F /  23.1 °C 62.8 °F /  17.1 °C 29.94in /  1013.8hPa SW 13mph /  20.9km/h 25.3mph /  40.7km/h 68.8% 0.00in /  0mm 522 W/m2
08:44 73.9 °F /  23.3 °C 62.8 °F /  17.1 °C 29.95in /  1014.1hPa SW 13.3mph /  21.4km/h 25.3mph /  40.7km/h 68.3% 0.00in /  0mm 540 W/m2
08:49 74.2 °F /  23.4 °C 63.1 °F /  17.3 °C 29.95in /  1014.1hPa SSW 12.4mph /  20km/h 24.1mph /  38.8km/h 68.2% 0.00in /  0mm 554 W/m2
08:54 74.9 °F /  23.8 °C 63.6 °F /  17.6 °C 29.94in /  1013.8hPa SW 13.1mph /  21.1km/h 20.7mph /  33.3km/h 67.9% 0.00in /  0mm 566 W/m2
08:59 75.3 °F /  24.1 °C 63.5 °F /  17.5 °C 29.94in /  1013.8hPa SW 12.1mph /  19.5km/h 21.9mph /  35.2km/h 66.8% 0.00in /  0mm 584 W/m2
09:04 75.4 °F /  24.1 °C 63.6 °F /  17.6 °C 29.94in /  1013.8hPa SW 13.6mph /  21.9km/h 21.9mph /  35.2km/h 66.6% 0.00in /  0mm 596 W/m2
09:09 75.7 °F /  24.3 °C 63.7 °F /  17.6 °C 29.94in /  1013.8hPa SW 11.7mph /  18.8km/h 20.7mph /  33.3km/h 66.3% 0.00in /  0mm 608 W/m2
09:14 76.1 °F /  24.5 °C 63.9 °F /  17.7 °C 29.94in /  1013.8hPa SW 13.1mph /  21.1km/h 23mph /  37km/h 65.8% 0.00in /  0mm 622 W/m2
09:19 76.6 °F /  24.8 °C 64.1 °F /  17.8 °C 29.94in /  1013.8hPa SW 12.7mph /  20.4km/h 23mph /  37km/h 65.2% 0.00in /  0mm 635 W/m2
09:24 77 °F /  25 °C 64.1 °F /  17.8 °C 29.94in /  1013.8hPa SW 15.3mph /  24.6km/h 24.1mph /  38.8km/h 64.5% 0.00in /  0mm 650 W/m2
09:29 77.5 °F /  25.3 °C 64.2 °F /  17.9 °C 29.94in /  1013.8hPa SW 11.4mph /  18.3km/h 24.1mph /  38.8km/h 63.8% 0.00in /  0mm 663 W/m2
09:34 77.8 °F /  25.4 °C 64.3 °F /  17.9 °C 29.93in /  1013.4hPa SW 13.5mph /  21.7km/h 20.7mph /  33.3km/h 63.2% 0.00in /  0mm 673 W/m2
09:39 78.2 °F /  25.7 °C 64.6 °F /  18.1 °C 29.93in /  1013.4hPa SW 14.1mph /  22.7km/h 23mph /  37km/h 63.2% 0.00in /  0mm 686 W/m2
09:44 78.8 °F /  26 °C 65.1 °F /  18.4 °C 29.93in /  1013.4hPa SW 11.3mph /  18.2km/h 23mph /  37km/h 63% 0.00in /  0mm 698 W/m2
09:49 78.9 °F /  26.1 °C 64.7 °F /  18.2 °C 29.93in /  1013.4hPa SW 15.4mph /  24.8km/h 24.1mph /  38.8km/h 61.7% 0.00in /  0mm 712 W/m2
09:54 79.1 °F /  26.2 °C 65.1 °F /  18.4 °C 29.93in /  1013.4hPa SW 15.2mph /  24.5km/h 24.1mph /  38.8km/h 62.4% 0.00in /  0mm 721 W/m2
09:59 79.2 °F /  26.2 °C 64.6 °F /  18.1 °C 29.93in /  1013.4hPa SW 15.5mph /  24.9km/h 26.4mph /  42.5km/h 61% 0.00in /  0mm 735 W/m2
10:04 79.4 °F /  26.3 °C 65 °F /  18.3 °C 29.93in /  1013.4hPa SW 13.6mph /  21.9km/h 26.4mph /  42.5km/h 61.4% 0.00in /  0mm 747 W/m2
10:09 80.1 °F /  26.7 °C 65.3 °F /  18.5 °C 29.93in /  1013.4hPa SW 14.9mph /  24km/h 23mph /  37km/h 60.7% 0.00in /  0mm 758 W/m2
10:14 80.3 °F /  26.8 °C 65 °F /  18.3 °C 29.92in /  1013.1hPa SW 12.1mph /  19.5km/h 23mph /  37km/h 59.7% 0.00in /  0mm 768 W/m2
10:19 80.3 °F /  26.8 °C 65.1 °F /  18.4 °C 29.92in /  1013.1hPa SW 15.3mph /  24.6km/h 21.9mph /  35.2km/h 59.8% 0.00in /  0mm 779 W/m2
10:24 80.6 °F /  27 °C 65.5 °F /  18.6 °C 29.92in /  1013.1hPa SW 11.3mph /  18.2km/h 21.9mph /  35.2km/h 60.2% 0.00in /  0mm 789 W/m2
10:29 81.2 °F /  27.3 °C 65.6 °F /  18.7 °C 29.92in /  1013.1hPa SW 12.2mph /  19.6km/h 17.2mph /  27.7km/h 59.2% 0.00in /  0mm 802 W/m2
10:34 81.5 °F /  27.5 °C 65.3 °F /  18.5 °C 29.92in /  1013.1hPa SW 14.2mph /  22.9km/h 21.9mph /  35.2km/h 58% 0.00in /  0mm 812 W/m2
10:39 81.6 °F /  27.6 °C 65.7 °F /  18.7 °C 29.92in /  1013.1hPa SSW 14.1mph /  22.7km/h 23mph /  37km/h 58.5% 0.00in /  0mm 817 W/m2
10:44 82.3 °F /  27.9 °C 66 °F /  18.9 °C 29.92in /  1013.1hPa SW 11.8mph /  19km/h 23mph /  37km/h 57.9% 0.00in /  0mm 828 W/m2
10:49 82.7 °F /  28.2 °C 65.6 °F /  18.7 °C 29.92in /  1013.1hPa SW 14.6mph /  23.5km/h 21.9mph /  35.2km/h 56.3% 0.00in /  0mm 837 W/m2
10:54 82.5 °F /  28.1 °C 65.5 °F /  18.6 °C 29.92in /  1013.1hPa WSW 13.1mph /  21.1km/h 21.9mph /  35.2km/h 56.4% 0.00in /  0mm 847 W/m2
10:59 83 °F /  28.3 °C 66 °F /  18.9 °C 29.91in /  1012.8hPa SW 12.4mph /  20km/h 20.7mph /  33.3km/h 56.7% 0.00in /  0mm 856 W/m2
11:04 83.3 °F /  28.5 °C 66.1 °F /  18.9 °C 29.91in /  1012.8hPa SW 12.8mph /  20.6km/h 21.9mph /  35.2km/h 56.2% 0.00in /  0mm 863 W/m2
11:09 83.4 °F /  28.6 °C 65.6 °F /  18.7 °C 29.91in /  1012.8hPa SW 13.7mph /  22km/h 21.9mph /  35.2km/h 55.1% 0.00in /  0mm 868 W/m2
11:14 83.5 °F /  28.6 °C 65.9 °F /  18.8 °C 29.91in /  1012.8hPa SW 9.8mph /  15.8km/h 20.7mph /  33.3km/h 55.5% 0.00in /  0mm 877 W/m2
11:19 84 °F /  28.9 °C 66.5 °F /  19.2 °C 29.91in /  1012.8hPa SW 11mph /  17.7km/h 20.7mph /  33.3km/h 55.9% 0.00in /  0mm 881 W/m2
11:24 84.5 °F /  29.2 °C 66.6 °F /  19.2 °C 29.91in /  1012.8hPa SW 11.3mph /  18.2km/h 17.2mph /  27.7km/h 55.2% 0.00in /  0mm 891 W/m2
11:29 84.3 °F /  29.1 °C 66 °F /  18.9 °C 29.91in /  1012.8hPa SW 14.6mph /  23.5km/h 19.5mph /  31.4km/h 54.3% 0.00in /  0mm 898 W/m2
11:34 84.3 °F /  29.1 °C 66.3 °F /  19.1 °C 29.91in /  1012.8hPa SW 12.3mph /  19.8km/h 19.5mph /  31.4km/h 54.7% 0.00in /  0mm 907 W/m2
11:39 84.8 °F /  29.3 °C 66.5 °F /  19.2 °C 29.91in /  1012.8hPa SW 12.4mph /  20km/h 19.5mph /  31.4km/h 54.2% 0.00in /  0mm 909 W/m2
11:44 84.7 °F /  29.3 °C 66 °F /  18.9 °C 29.90in /  1012.4hPa WSW 13.6mph /  21.9km/h 19.5mph /  31.4km/h 53.7% 0.00in /  0mm 916 W/m2
11:49 84.7 °F /  29.3 °C 66.2 °F /  19 °C 29.90in /  1012.4hPa SW 12.5mph /  20.1km/h 19.5mph /  31.4km/h 53.9% 0.00in /  0mm 919 W/m2
11:54 85.3 °F /  29.6 °C 66.3 °F /  19.1 °C 29.90in /  1012.4hPa SW 12.2mph /  19.6km/h 19.5mph /  31.4km/h 53.2% 0.00in /  0mm 926 W/m2
11:59 85.4 °F /  29.7 °C 66.2 °F /  19 °C 29.90in /  1012.4hPa WSW 14.4mph /  23.2km/h 20.7mph /  33.3km/h 52.9% 0.00in /  0mm 928 W/m2
12:04 85.2 °F /  29.6 °C 66.3 °F /  19.1 °C 29.90in /  1012.4hPa SW 9.6mph /  15.4km/h 20.7mph /  33.3km/h 53.2% 0.00in /  0mm 935 W/m2
12:09 85.9 °F /  29.9 °C 67.1 °F /  19.5 °C 29.90in /  1012.4hPa SW 11.6mph /  18.7km/h 25.3mph /  40.7km/h 53.5% 0.00in /  0mm 937 W/m2
12:14 86.1 °F /  30.1 °C 66.7 °F /  19.3 °C 29.90in /  1012.4hPa SSW 14.5mph /  23.3km/h 25.3mph /  40.7km/h 52.5% 0.00in /  0mm 942 W/m2
12:19 86.5 °F /  30.3 °C 67 °F /  19.4 °C 29.89in /  1012.1hPa SW 11.7mph /  18.8km/h 25.3mph /  40.7km/h 52.5% 0.00in /  0mm 944 W/m2
12:24 86.9 °F /  30.5 °C 67.1 °F /  19.5 °C 29.89in /  1012.1hPa SW 11.6mph /  18.7km/h 19.5mph /  31.4km/h 51.9% 0.00in /  0mm 944 W/m2
12:29 87.1 °F /  30.6 °C 66.9 °F /  19.4 °C 29.89in /  1012.1hPa SW 13.5mph /  21.7km/h 25.3mph /  40.7km/h 51.3% 0.00in /  0mm 949 W/m2
12:34 86.9 °F /  30.5 °C 66.4 °F /  19.1 °C 29.89in /  1012.1hPa SW 13.3mph /  21.4km/h 25.3mph /  40.7km/h 50.5% 0.00in /  0mm 949 W/m2
12:39 86.6 °F /  30.3 °C 66.4 °F /  19.1 °C 29.89in /  1012.1hPa SW 12.4mph /  20km/h 23mph /  37km/h 51.2% 0.00in /  0mm 953 W/m2
12:44 87 °F /  30.6 °C 66.9 °F /  19.4 °C 29.88in /  1011.7hPa SW 12.2mph /  19.6km/h 20.7mph /  33.3km/h 51.4% 0.00in /  0mm 954 W/m2
12:49 87.9 °F /  31.1 °C 67.1 °F /  19.5 °C 29.88in /  1011.7hPa SW 11.8mph /  19km/h 20.7mph /  33.3km/h 50.4% 0.00in /  0mm 956 W/m2
12:54 88.2 °F /  31.2 °C 67.5 °F /  19.7 °C 29.88in /  1011.7hPa WSW 13.5mph /  21.7km/h 20.7mph /  33.3km/h 50.5% 0.00in /  0mm 956 W/m2
12:59 88.4 °F /  31.3 °C 67.5 °F /  19.7 °C 29.88in /  1011.7hPa SW 12.2mph /  19.6km/h 20.7mph /  33.3km/h 50.1% 0.00in /  0mm 958 W/m2
13:04 88.8 °F /  31.6 °C 67.5 °F /  19.7 °C 29.88in /  1011.7hPa SW 12mph /  19.3km/h 20.7mph /  33.3km/h 49.5% 0.00in /  0mm 956 W/m2
13:09 89.1 °F /  31.7 °C 67.3 °F /  19.6 °C 29.88in /  1011.7hPa SW 12.4mph /  20km/h 19.5mph /  31.4km/h 48.8% 0.00in /  0mm 956 W/m2
13:14 89.1 °F /  31.7 °C 67.1 °F /  19.5 °C 29.88in /  1011.7hPa SW 12.4mph /  20km/h 18.4mph /  29.6km/h 48.4% 0.00in /  0mm 956 W/m2
13:19 89.1 °F /  31.7 °C 66.7 °F /  19.3 °C 29.87in /  1011.4hPa SW 16.4mph /  26.4km/h 25.3mph /  40.7km/h 47.8% 0.00in /  0mm 954 W/m2
13:24 89.2 °F /  31.8 °C 66.8 °F /  19.3 °C 29.87in /  1011.4hPa SW 12.1mph /  19.5km/h 25.3mph /  40.7km/h 47.7% 0.00in /  0mm 954 W/m2
13:29 89.7 °F /  32.1 °C 67.4 °F /  19.7 °C 29.87in /  1011.4hPa SW 12.9mph /  20.8km/h 19.5mph /  31.4km/h 47.9% 0.00in /  0mm 951 W/m2
13:34 90.4 °F /  32.4 °C 67.8 °F /  19.9 °C 29.87in /  1011.4hPa SW 11.8mph /  19km/h 19.5mph /  31.4km/h 47.5% 0.00in /  0mm 946 W/m2
13:39 90.6 °F /  32.6 °C 67.4 °F /  19.7 °C 29.86in /  1011.1hPa SW 11.7mph /  18.8km/h 19.5mph /  31.4km/h 46.6% 0.00in /  0mm 944 W/m2
13:44 90.6 °F /  32.6 °C 67.7 °F /  19.8 °C 29.87in /  1011.4hPa SW 14.3mph /  23km/h 21.9mph /  35.2km/h 47.1% 0.00in /  0mm 930 W/m2
13:49 90.4 °F /  32.4 °C 67.2 °F /  19.6 °C 29.86in /  1011.1hPa SW 11.3mph /  18.2km/h 21.9mph /  35.2km/h 46.7% 0.00in /  0mm 939 W/m2
13:54 91 °F /  32.8 °C 68 °F /  20 °C 29.86in /  1011.1hPa SW 10.7mph /  17.2km/h 20.7mph /  33.3km/h 47% 0.00in /  0mm 926 W/m2
13:59 91.3 °F /  32.9 °C 67.2 °F /  19.6 °C 29.86in /  1011.1hPa SW 11mph /  17.7km/h 19.5mph /  31.4km/h 45.4% 0.00in /  0mm 926 W/m2
14:04 91.2 °F /  32.9 °C 66.8 °F /  19.3 °C 29.86in /  1011.1hPa SW 11.6mph /  18.7km/h 25.3mph /  40.7km/h 44.9% 0.00in /  0mm 919 W/m2
14:09 91.1 °F /  32.8 °C 66.5 °F /  19.2 °C 29.86in /  1011.1hPa SW 14.9mph /  24km/h 25.3mph /  40.7km/h 44.5% 0.00in /  0mm 895 W/m2
14:14 91.3 °F /  32.9 °C 66.7 °F /  19.3 °C 29.85in /  1010.7hPa SW 11.6mph /  18.7km/h 21.9mph /  35.2km/h 44.4% 0.00in /  0mm 907 W/m2
14:19 91.2 °F /  32.9 °C 66.5 °F /  19.2 °C 29.85in /  1010.7hPa SW 13.3mph /  21.4km/h 21.9mph /  35.2km/h 44.3% 0.00in /  0mm 898 W/m2
14:24 91 °F /  32.8 °C 66.7 °F /  19.3 °C 29.85in /  1010.7hPa SW 12.9mph /  20.8km/h 21.9mph /  35.2km/h 45% 0.00in /  0mm 896 W/m2
14:29 91.3 °F /  32.9 °C 66.6 °F /  19.2 °C 29.85in /  1010.7hPa SW 14.5mph /  23.3km/h 23mph /  37km/h 44.4% 0.00in /  0mm 891 W/m2
14:34 91.3 °F /  32.9 °C 66.9 °F /  19.4 °C 29.85in /  1010.7hPa SW 12.1mph /  19.5km/h 23mph /  37km/h 44.8% 0.00in /  0mm 888 W/m2
14:39 91.7 °F /  33.2 °C 66.8 °F /  19.3 °C 29.85in /  1010.7hPa SW 14.3mph /  23km/h 21.9mph /  35.2km/h 44.1% 0.00in /  0mm 888 W/m2
14:44 92.3 °F /  33.5 °C 67.2 °F /  19.6 °C 29.85in /  1010.7hPa SSW 16.8mph /  27km/h 23mph /  37km/h 43.9% 0.00in /  0mm 872 W/m2
14:49 92.4 °F /  33.6 °C 66.6 °F /  19.2 °C 29.85in /  1010.7hPa SW 12.8mph /  20.6km/h 23mph /  37km/h 43% 0.00in /  0mm 863 W/m2
14:54 92.1 °F /  33.4 °C 66.4 °F /  19.1 °C 29.85in /  1010.7hPa SW 14.3mph /  23km/h 20.7mph /  33.3km/h 43% 0.00in /  0mm 858 W/m2
14:59 92.1 °F /  33.4 °C 66.1 °F /  18.9 °C 29.85in /  1010.7hPa SW 14.1mph /  22.7km/h 20.7mph /  33.3km/h 42.6% 0.00in /  0mm 842 W/m2
15:04 92.4 °F /  33.6 °C 66.3 °F /  19.1 °C 29.84in /  1010.4hPa SW 13.2mph /  21.2km/h 20.7mph /  33.3km/h 42.5% 0.00in /  0mm 837 W/m2
15:09 92.5 °F /  33.6 °C 66.2 °F /  19 °C 29.84in /  1010.4hPa SW 15.9mph /  25.6km/h 31mph /  49.9km/h 42.2% 0.00in /  0mm 833 W/m2
15:14 92.2 °F /  33.4 °C 65.3 °F /  18.5 °C 29.84in /  1010.4hPa SW 16.6mph /  26.7km/h 31mph /  49.9km/h 41.3% 0.00in /  0mm 826 W/m2
15:19 91.7 °F /  33.2 °C 64.9 °F /  18.3 °C 29.84in /  1010.4hPa SW 16.9mph /  27.2km/h 25.3mph /  40.7km/h 41.3% 0.00in /  0mm 814 W/m2
15:24 91.8 °F /  33.2 °C 65.9 °F /  18.8 °C 29.84in /  1010.4hPa SW 14.5mph /  23.3km/h 25.3mph /  40.7km/h 42.6% 0.00in /  0mm 802 W/m2
15:29 92.2 °F /  33.4 °C 65.2 °F /  18.4 °C 29.84in /  1010.4hPa SW 14.9mph /  24km/h 24.1mph /  38.8km/h 41.1% 0.00in /  0mm 793 W/m2
15:34 92.4 °F /  33.6 °C 65.3 °F /  18.5 °C 29.84in /  1010.4hPa SW 13.9mph /  22.4km/h 24.1mph /  38.8km/h 41% 0.00in /  0mm 786 W/m2
15:39 92.3 °F /  33.5 °C 65.9 °F /  18.8 °C 29.84in /  1010.4hPa SW 12.7mph /  20.4km/h 24.1mph /  38.8km/h 42% 0.00in /  0mm 779 W/m2
15:44 92.6 °F /  33.7 °C 65.1 °F /  18.4 °C 29.84in /  1010.4hPa SW 13.9mph /  22.4km/h 21.9mph /  35.2km/h 40.5% 0.00in /  0mm 765 W/m2
15:49 92.9 °F /  33.8 °C 65.3 °F /  18.5 °C 29.84in /  1010.4hPa SW 13mph /  20.9km/h 21.9mph /  35.2km/h 40.5% 0.00in /  0mm 740 W/m2
15:54 92.8 °F /  33.8 °C 65.3 °F /  18.5 °C 29.84in /  1010.4hPa SW 15.8mph /  25.4km/h 26.4mph /  42.5km/h 40.5% 0.00in /  0mm 728 W/m2
15:59 93 °F /  33.9 °C 65.5 °F /  18.6 °C 29.83in /  1010hPa SSW 15.2mph /  24.5km/h 26.4mph /  42.5km/h 40.5% 0.00in /  0mm 719 W/m2
16:04 93 °F /  33.9 °C 64.9 °F /  18.3 °C 29.83in /  1010hPa SW 14.2mph /  22.9km/h 21.9mph /  35.2km/h 39.6% 0.00in /  0mm 710 W/m2
16:09 93.2 °F /  34 °C 64.9 °F /  18.3 °C 29.83in /  1010hPa SW 14.4mph /  23.2km/h 23mph /  37km/h 39.5% 0.00in /  0mm 700 W/m2
16:14 93 °F /  33.9 °C 64.6 °F /  18.1 °C 29.83in /  1010hPa SW 14.6mph /  23.5km/h 23mph /  37km/h 39.3% 0.00in /  0mm 687 W/m2
16:19 92.9 °F /  33.8 °C 64.4 °F /  18 °C 29.83in /  1010hPa SW 14.4mph /  23.2km/h 24.1mph /  38.8km/h 39.1% 0.00in /  0mm 675 W/m2
16:24 92.9 °F /  33.8 °C 62.9 °F /  17.2 °C 29.83in /  1010hPa SW 15.5mph /  24.9km/h 24.1mph /  38.8km/h 37.1% 0.00in /  0mm 663 W/m2
16:29 93 °F /  33.9 °C 63.4 °F /  17.4 °C 29.83in /  1010hPa SW 16.9mph /  27.2km/h 24.1mph /  38.8km/h 37.6% 0.00in /  0mm 645 W/m2
16:34 93 °F /  33.9 °C 63 °F /  17.2 °C 29.83in /  1010hPa SW 16.1mph /  25.9km/h 27.6mph /  44.4km/h 37.2% 0.00in /  0mm 631 W/m2
16:39 93 °F /  33.9 °C 63.7 °F /  17.6 °C 29.83in /  1010hPa SW 14.5mph /  23.3km/h 27.6mph /  44.4km/h 38.2% 0.00in /  0mm 622 W/m2
16:44 92.9 °F /  33.8 °C 64.3 °F /  17.9 °C 29.83in /  1010hPa SW 14.5mph /  23.3km/h 24.1mph /  38.8km/h 39% 0.00in /  0mm 605 W/m2
16:49 93.1 °F /  33.9 °C 63.7 °F /  17.6 °C 29.83in /  1010hPa SW 15.3mph /  24.6km/h 19.5mph /  31.4km/h 37.9% 0.00in /  0mm 592 W/m2
16:54 92.8 °F /  33.8 °C 63.2 °F /  17.3 °C 29.83in /  1010hPa SW 14.9mph /  24km/h 23mph /  37km/h 37.5% 0.00in /  0mm 582 W/m2
16:59 92.7 °F /  33.7 °C 63.2 °F /  17.3 °C 29.83in /  1010hPa SW 13.5mph /  21.7km/h 23mph /  37km/h 37.8% 0.00in /  0mm 563 W/m2
17:04 92.6 °F /  33.7 °C 63.9 °F /  17.7 °C 29.83in /  1010hPa SW 14.1mph /  22.7km/h 23mph /  37km/h 38.8% 0.00in /  0mm 548 W/m2
17:09 92.6 °F /  33.7 °C 64.4 °F /  18 °C 29.82in /  1009.7hPa SW 13.6mph /  21.9km/h 24.1mph /  38.8km/h 39.5% 0.00in /  0mm 534 W/m2
17:14 92.8 °F /  33.8 °C 65.1 °F /  18.4 °C 29.82in /  1009.7hPa SW 14.4mph /  23.2km/h 24.1mph /  38.8km/h 40.2% 0.00in /  0mm 517 W/m2
17:19 92.8 °F /  33.8 °C 64.6 °F /  18.1 °C 29.82in /  1009.7hPa SW 14mph /  22.5km/h 21.9mph /  35.2km/h 39.6% 0.00in /  0mm 496 W/m2
17:24 92.5 °F /  33.6 °C 64.4 °F /  18 °C 29.82in /  1009.7hPa SSW 13.4mph /  21.6km/h 21.9mph /  35.2km/h 39.6% 0.00in /  0mm 494 W/m2
17:29 92.5 °F /  33.6 °C 64.6 °F /  18.1 °C 29.82in /  1009.7hPa SW 12.3mph /  19.8km/h 21.9mph /  35.2km/h 39.8% 0.00in /  0mm 476 W/m2
17:34 92.3 °F /  33.5 °C 64.5 °F /  18.1 °C 29.82in /  1009.7hPa SW 15.9mph /  25.6km/h 27.6mph /  44.4km/h 40% 0.00in /  0mm 459 W/m2
17:39 92.2 °F /  33.4 °C 64.4 °F /  18 °C 29.82in /  1009.7hPa SW 15.6mph /  25.1km/h 27.6mph /  44.4km/h 40% 0.00in /  0mm 441 W/m2
17:44 92.3 °F /  33.5 °C 64.2 °F /  17.9 °C 29.82in /  1009.7hPa SW 15.4mph /  24.8km/h 25.3mph /  40.7km/h 39.7% 0.00in /  0mm 429 W/m2
17:49 92.1 °F /  33.4 °C 64.3 °F /  17.9 °C 29.81in /  1009.4hPa SW 16mph /  25.7km/h 25.3mph /  40.7km/h 40% 0.00in /  0mm 413 W/m2
17:54 91.8 °F /  33.2 °C 64.1 °F /  17.8 °C 29.81in /  1009.4hPa SW 13.4mph /  21.6km/h 25.3mph /  40.7km/h 40.1% 0.00in /  0mm 388 W/m2
17:59 91.8 °F /  33.2 °C 63.9 °F /  17.7 °C 29.82in /  1009.7hPa SW 12.2mph /  19.6km/h 21.9mph /  35.2km/h 39.9% 0.00in /  0mm 376 W/m2
18:04 91.5 °F /  33.1 °C 63.9 °F /  17.7 °C 29.82in /  1009.7hPa SW 12.6mph /  20.3km/h 21.9mph /  35.2km/h 40.1% 0.00in /  0mm 355 W/m2
18:09 91.5 °F /  33.1 °C 63.8 °F /  17.7 °C 29.81in /  1009.4hPa SW 13.2mph /  21.2km/h 23mph /  37km/h 40.1% 0.00in /  0mm 346 W/m2
18:14 91.5 °F /  33.1 °C 64.1 °F /  17.8 °C 29.81in /  1009.4hPa SW 15.3mph /  24.6km/h 23mph /  37km/h 40.5% 0.00in /  0mm 334 W/m2
18:19 91.1 °F /  32.8 °C 63.7 °F /  17.6 °C 29.81in /  1009.4hPa SW 15mph /  24.1km/h 24.1mph /  38.8km/h 40.4% 0.00in /  0mm 311 W/m2
18:24 90.8 °F /  32.7 °C 63.9 °F /  17.7 °C 29.81in /  1009.4hPa SW 13.9mph /  22.4km/h 25.3mph /  40.7km/h 41% 0.00in /  0mm 281 W/m2
18:29 90.6 °F /  32.6 °C 64.2 °F /  17.9 °C 29.81in /  1009.4hPa SW 13.6mph /  21.9km/h 25.3mph /  40.7km/h 41.8% 0.00in /  0mm 281 W/m2
18:34 90.4 °F /  32.4 °C 64.2 °F /  17.9 °C 29.81in /  1009.4hPa SW 13.1mph /  21.1km/h 21.9mph /  35.2km/h 42.1% 0.00in /  0mm 265 W/m2
18:39 90 °F /  32.2 °C 64.1 °F /  17.8 °C 29.81in /  1009.4hPa SW 13.4mph /  21.6km/h 25.3mph /  40.7km/h 42.3% 0.00in /  0mm 229 W/m2
18:44 89.7 °F /  32.1 °C 64.5 °F /  18.1 °C 29.81in /  1009.4hPa SSW 13.1mph /  21.1km/h 25.3mph /  40.7km/h 43.4% 0.00in /  0mm 91 W/m2
18:49 89.4 °F /  31.9 °C 64 °F /  17.8 °C 29.81in /  1009.4hPa SW 11.9mph /  19.2km/h 21.9mph /  35.2km/h 43% 0.00in /  0mm 60 W/m2
18:54 89.2 °F /  31.8 °C 64.4 °F /  18 °C 29.81in /  1009.4hPa SW 12.7mph /  20.4km/h 20.7mph /  33.3km/h 43.8% 0.00in /  0mm 53 W/m2
18:59 89.1 °F /  31.7 °C 64.4 °F /  18 °C 29.81in /  1009.4hPa SW 13.8mph /  22.2km/h 20.7mph /  33.3km/h 44.1% 0.00in /  0mm 42 W/m2
19:04 88.9 °F /  31.6 °C 64.8 °F /  18.2 °C 29.81in /  1009.4hPa SW 10.3mph /  16.6km/h 19.5mph /  31.4km/h 45% 0.00in /  0mm 40 W/m2
19:09 88.6 °F /  31.4 °C 64.9 °F /  18.3 °C 29.81in /  1009.4hPa SW 10.8mph /  17.4km/h 17.2mph /  27.7km/h 45.6% 0.00in /  0mm 37 W/m2
19:14 88.4 °F /  31.3 °C 65.3 °F /  18.5 °C 29.81in /  1009.4hPa SW 9.8mph /  15.8km/h 17.2mph /  27.7km/h 46.4% 0.00in /  0mm 35 W/m2
19:19 88.2 °F /  31.2 °C 66 °F /  18.9 °C 29.81in /  1009.4hPa SW 11.9mph /  19.2km/h 17.2mph /  27.7km/h 47.9% 0.00in /  0mm 33 W/m2
19:24 87.9 °F /  31.1 °C 65.5 °F /  18.6 °C 29.80in /  1009hPa SW 11mph /  17.7km/h 17.2mph /  27.7km/h 47.5% 0.00in /  0mm 32 W/m2
19:29 87.7 °F /  30.9 °C 65.2 °F /  18.4 °C 29.81in /  1009.4hPa SW 10.9mph /  17.5km/h 19.5mph /  31.4km/h 47.3% 0.00in /  0mm 30 W/m2
19:34 87.5 °F /  30.8 °C 65.1 °F /  18.4 °C 29.80in /  1009hPa SW 12.2mph /  19.6km/h 19.5mph /  31.4km/h 47.5% 0.00in /  0mm 26 W/m2
19:39 87.2 °F /  30.7 °C 65.3 °F /  18.5 °C 29.80in /  1009hPa SW 10.9mph /  17.5km/h 17.2mph /  27.7km/h 48.2% 0.00in /  0mm 26 W/m2
19:44 86.9 °F /  30.5 °C 65.5 °F /  18.6 °C 29.80in /  1009hPa SW 9.3mph /  15km/h 14.9mph /  24km/h 48.9% 0.00in /  0mm 23 W/m2
19:49 86.7 °F /  30.4 °C 65.2 °F /  18.4 °C 29.80in /  1009hPa SW 10mph /  16.1km/h 16.1mph /  25.9km/h 49% 0.00in /  0mm 19 W/m2
19:54 86.4 °F /  30.2 °C 65 °F /  18.3 °C 29.79in /  1008.7hPa SW 9.8mph /  15.8km/h 18.4mph /  29.6km/h 49% 0.00in /  0mm 18 W/m2
19:59 86.1 °F /  30.1 °C 64.7 °F /  18.2 °C 29.79in /  1008.7hPa SW 8.9mph /  14.3km/h 18.4mph /  29.6km/h 49% 0.00in /  0mm 14 W/m2
20:04 85.8 °F /  29.9 °C 64.6 °F /  18.1 °C 29.80in /  1009hPa SW 9.8mph /  15.8km/h 19.5mph /  31.4km/h 49.4% 0.00in /  0mm 12 W/m2
20:09 85.6 °F /  29.8 °C 64.7 °F /  18.2 °C 29.80in /  1009hPa SW 9.2mph /  14.8km/h 19.5mph /  31.4km/h 49.8% 0.00in /  0mm 7 W/m2
20:14 85.3 °F /  29.6 °C 64.6 °F /  18.1 °C 29.79in /  1008.7hPa SW 9.9mph /  15.9km/h 17.2mph /  27.7km/h 50.1% 0.00in /  0mm 0 W/m2
20:19 85 °F /  29.4 °C 64.8 °F /  18.2 °C 29.79in /  1008.7hPa SW 10.9mph /  17.5km/h 17.2mph /  27.7km/h 51% 0.00in /  0mm 0 W/m2
20:24 84.7 °F /  29.3 °C 64.8 °F /  18.2 °C 29.79in /  1008.7hPa SW 9.6mph /  15.4km/h 17.2mph /  27.7km/h 51.4% 0.00in /  0mm 0 W/m2
20:29 84.5 °F /  29.2 °C 64.9 °F /  18.3 °C 29.79in /  1008.7hPa SW 10.2mph /  16.4km/h 16.1mph /  25.9km/h 52% 0.00in /  0mm 0 W/m2
20:34 84.2 °F /  29 °C 65.2 °F /  18.4 °C 29.79in /  1008.7hPa SW 10.8mph /  17.4km/h 16.1mph /  25.9km/h 52.8% 0.00in /  0mm 0 W/m2
20:39 83.9 °F /  28.8 °C 65.3 °F /  18.5 °C 29.80in /  1009hPa SW 8.8mph /  14.2km/h 16.1mph /  25.9km/h 53.7% 0.00in /  0mm 0 W/m2
20:44 83.6 °F /  28.7 °C 65.4 °F /  18.6 °C 29.80in /  1009hPa SW 8.7mph /  14km/h 14.9mph /  24km/h 54.3% 0.00in /  0mm 0 W/m2
20:49 83.2 °F /  28.4 °C 65.5 °F /  18.6 °C 29.81in /  1009.4hPa SSW 8.7mph /  14km/h 12.6mph /  20.3km/h 55.3% 0.00in /  0mm 0 W/m2
20:54 82.9 °F /  28.3 °C 65.6 °F /  18.7 °C 29.81in /  1009.4hPa SW 8.5mph /  13.7km/h 12.6mph /  20.3km/h 56% 0.00in /  0mm 0 W/m2
20:59 82.6 °F /  28.1 °C 65.6 °F /  18.7 °C 29.82in /  1009.7hPa SW 7.5mph /  12.1km/h 12.6mph /  20.3km/h 56.4% 0.00in /  0mm 0 W/m2
21:04 82.5 °F /  28.1 °C 65.7 °F /  18.7 °C 29.82in /  1009.7hPa SW 8.6mph /  13.8km/h 14.9mph /  24km/h 57% 0.00in /  0mm 0 W/m2
21:09 82.3 °F /  27.9 °C 65.6 °F /  18.7 °C 29.83in /  1010hPa SW 7.9mph /  12.7km/h 14.9mph /  24km/h 57% 0.00in /  0mm 0 W/m2
21:14 82.1 °F /  27.8 °C 65.7 °F /  18.7 °C 29.83in /  1010hPa SW 6.8mph /  10.9km/h 12.6mph /  20.3km/h 57.5% 0.00in /  0mm 0 W/m2
21:19 81.9 °F /  27.7 °C 65.7 °F /  18.7 °C 29.84in /  1010.4hPa SW 6.3mph /  10.1km/h 10.3mph /  16.6km/h 58% 0.00in /  0mm 0 W/m2
21:24 81.8 °F /  27.7 °C 65.6 °F /  18.7 °C 29.84in /  1010.4hPa SW 7.5mph /  12.1km/h 11.5mph /  18.5km/h 58% 0.00in /  0mm 0 W/m2
21:29 81.7 °F /  27.6 °C 65.7 °F /  18.7 °C 29.83in /  1010hPa SW 8.1mph /  13km/h 13.8mph /  22.2km/h 58.4% 0.00in /  0mm 0 W/m2
21:34 81.6 °F /  27.6 °C 65.9 °F /  18.8 °C 29.84in /  1010.4hPa SW 8.3mph /  13.4km/h 13.8mph /  22.2km/h 59% 0.00in /  0mm 0 W/m2
21:39 81.5 °F /  27.5 °C 65.8 °F /  18.8 °C 29.84in /  1010.4hPa SW 7.7mph /  12.4km/h 13.8mph /  22.2km/h 59% 0.00in /  0mm 0 W/m2
21:44 81.4 °F /  27.4 °C 65.8 °F /  18.8 °C 29.84in /  1010.4hPa SW 10.8mph /  17.4km/h 14.9mph /  24km/h 59.2% 0.00in /  0mm 0 W/m2
21:49 81.4 °F /  27.4 °C 66 °F /  18.9 °C 29.85in /  1010.7hPa SW 10.1mph /  16.3km/h 14.9mph /  24km/h 59.7% 0.00in /  0mm 0 W/m2
21:54 81.3 °F /  27.4 °C 66.1 °F /  18.9 °C 29.85in /  1010.7hPa SW 10.1mph /  16.3km/h 16.1mph /  25.9km/h 60% 0.00in /  0mm 0 W/m2
21:59 81.2 °F /  27.3 °C 66 °F /  18.9 °C 29.84in /  1010.4hPa SW 9.8mph /  15.8km/h 16.1mph /  25.9km/h 60% 0.00in /  0mm 0 W/m2
22:04 81 °F /  27.2 °C 65.9 °F /  18.8 °C 29.84in /  1010.4hPa SW 8.4mph /  13.5km/h 13.8mph /  22.2km/h 60.2% 0.00in /  0mm 0 W/m2
22:09 80.7 °F /  27.1 °C 66 °F /  18.9 °C 29.84in /  1010.4hPa SW 8.6mph /  13.8km/h 13.8mph /  22.2km/h 61% 0.00in /  0mm 0 W/m2
22:14 80.4 °F /  26.9 °C 66.2 °F /  19 °C 29.84in /  1010.4hPa SW 8.9mph /  14.3km/h 14.9mph /  24km/h 61.9% 0.00in /  0mm 0 W/m2
22:19 80.2 °F /  26.8 °C 66 °F /  18.9 °C 29.84in /  1010.4hPa SSW 9.1mph /  14.6km/h 14.9mph /  24km/h 62% 0.00in /  0mm 0 W/m2
22:24 79.9 °F /  26.6 °C 66.2 °F /  19 °C 29.84in /  1010.4hPa SW 8.5mph /  13.7km/h 13.8mph /  22.2km/h 63% 0.00in /  0mm 0 W/m2
22:29 79.6 °F /  26.4 °C 65.9 °F /  18.8 °C 29.84in /  1010.4hPa SW 9.1mph /  14.6km/h 13.8mph /  22.2km/h 63% 0.00in /  0mm 0 W/m2
22:34 79.5 °F /  26.4 °C 65.8 °F /  18.8 °C 29.84in /  1010.4hPa SW 9.1mph /  14.6km/h 16.1mph /  25.9km/h 63% 0.00in /  0mm 0 W/m2
22:39 79.5 °F /  26.4 °C 65.8 °F /  18.8 °C 29.84in /  1010.4hPa SW 9.5mph /  15.3km/h 18.4mph /  29.6km/h 63% 0.00in /  0mm 0 W/m2
22:44 79.5 °F /  26.4 °C 65.8 °F /  18.8 °C 29.85in /  1010.7hPa SW 10.2mph /  16.4km/h 18.4mph /  29.6km/h 63% 0.00in /  0mm 0 W/m2
22:49 79.5 °F /  26.4 °C 65.8 °F /  18.8 °C 29.85in /  1010.7hPa SW 9.6mph /  15.4km/h 16.1mph /  25.9km/h 63% 0.00in /  0mm 0 W/m2
22:52 79.4 °F /  26.3 °C 65.7 °F /  18.7 °C 29.85in /  1010.7hPa SW 10.5mph /  16.9km/h 14.9mph /  24km/h 63% 0.00in /  0mm 0 W/m2
Peotne Weather
Compliments of Weather Underground - 4 mb